createdAt,value
2022-11-24T00:00:42.670Z,59.05
2022-11-24T00:03:28.654Z,58.55
2022-11-24T00:06:16.063Z,58.68
2022-11-24T00:09:03.641Z,58.65
2022-11-24T00:11:49.859Z,59.18
2022-11-24T00:14:36.327Z,58.82
2022-11-24T00:17:22.486Z,58.77
2022-11-24T00:20:09.196Z,58.83
2022-11-24T00:22:56.079Z,58.90
2022-11-24T00:25:42.113Z,58.85
2022-11-24T00:28:28.137Z,58.84
2022-11-24T00:31:22.922Z,59.03
2022-11-24T00:34:13.803Z,59.07
2022-11-24T00:37:00.019Z,58.66
2022-11-24T00:39:46.105Z,58.83
2022-11-24T00:42:32.160Z,58.65
2022-11-24T00:45:18.079Z,58.78
2022-11-24T00:48:04.153Z,58.97
2022-11-24T00:50:58.483Z,59.03
2022-11-24T00:53:45.277Z,59.11
2022-11-24T00:56:31.526Z,58.85
2022-11-24T00:59:17.387Z,58.79
2022-11-24T01:02:03.473Z,58.95
2022-11-24T01:04:49.439Z,58.68
2022-11-24T01:07:35.829Z,58.84
2022-11-24T01:10:21.679Z,59.00
2022-11-24T01:13:07.509Z,58.76
2022-11-24T01:15:53.537Z,58.67
2022-11-24T01:18:39.362Z,58.79
2022-11-24T01:21:25.312Z,58.67
2022-11-24T01:24:11.557Z,58.89
2022-11-24T01:26:57.577Z,58.85
2022-11-24T01:29:43.421Z,58.68
2022-11-24T01:32:29.423Z,58.55
2022-11-24T01:35:15.503Z,58.78
2022-11-24T01:38:01.383Z,58.87
2022-11-24T01:40:47.297Z,59.09
2022-11-24T01:43:33.754Z,58.38
2022-11-24T01:46:33.631Z,58.42
2022-11-24T01:49:39.864Z,59.01
2022-11-24T01:52:36.363Z,58.95
2022-11-24T01:55:28.779Z,58.62
2022-11-24T01:58:19.363Z,58.75
2022-11-24T02:01:05.555Z,58.67
2022-11-24T02:03:52.294Z,58.85
2022-11-24T02:06:40.091Z,58.22
2022-11-24T02:09:56.108Z,59.27
2022-11-24T02:12:44.421Z,58.35
2022-11-24T02:15:30.380Z,58.88
2022-11-24T02:18:16.652Z,58.48
2022-11-24T02:21:02.479Z,58.42
2022-11-24T02:23:51.075Z,59.08
2022-11-24T02:26:45.879Z,58.57
2022-11-24T02:29:31.876Z,58.45
2022-11-24T02:32:18.532Z,58.82
2022-11-24T02:35:06.240Z,58.90
2022-11-24T02:37:52.240Z,58.88
2022-11-24T02:40:38.131Z,58.87
2022-11-24T02:43:24.497Z,58.87
2022-11-24T02:46:10.948Z,58.80
2022-11-24T02:48:57.283Z,59.01
2022-11-24T02:51:43.454Z,58.75
2022-11-24T02:54:29.286Z,58.93
2022-11-24T02:57:15.420Z,58.94
2022-11-24T03:00:01.616Z,58.93
2022-11-24T03:02:47.635Z,58.83
2022-11-24T03:05:33.931Z,59.07
2022-11-24T03:08:19.831Z,59.08
2022-11-24T03:11:05.988Z,59.12
2022-11-24T03:13:52.651Z,58.72
2022-11-24T03:16:38.912Z,59.15
2022-11-24T03:19:24.692Z,58.74
2022-11-24T03:22:12.828Z,59.13
2022-11-24T03:24:59.358Z,58.52
2022-11-24T03:27:45.991Z,58.91
2022-11-24T03:30:32.045Z,59.04
2022-11-24T03:33:18.071Z,58.80
2022-11-24T03:36:05.259Z,58.88
2022-11-24T03:38:51.209Z,59.01
2022-11-24T03:41:37.292Z,58.49
2022-11-24T03:44:23.462Z,58.95
2022-11-24T03:47:11.051Z,58.59
2022-11-24T03:49:57.300Z,59.12
2022-11-24T03:52:43.639Z,58.93
2022-11-24T03:55:29.817Z,58.60
2022-11-24T03:58:16.037Z,58.73
2022-11-24T04:01:02.072Z,58.59
2022-11-24T04:03:47.987Z,58.40
2022-11-24T04:06:34.144Z,58.94
2022-11-24T04:09:20.091Z,59.13
2022-11-24T04:12:24.975Z,58.78
2022-11-24T04:15:16.025Z,58.56
2022-11-24T04:18:01.954Z,58.54
2022-11-24T04:20:52.711Z,58.68
2022-11-24T04:23:38.835Z,59.37
2022-11-24T04:26:24.873Z,58.93
2022-11-24T04:29:11.024Z,59.01
2022-11-24T04:31:57.310Z,58.90
2022-11-24T04:34:43.755Z,59.13
2022-11-24T04:37:29.853Z,59.01
2022-11-24T04:40:16.249Z,59.26
2022-11-24T04:43:02.288Z,59.15
2022-11-24T04:45:48.077Z,59.08
2022-11-24T04:48:34.001Z,59.16
2022-11-24T04:51:19.907Z,59.22
2022-11-24T04:54:07.546Z,58.74
2022-11-24T04:56:53.522Z,59.19
2022-11-24T04:59:39.339Z,59.30
2022-11-24T05:02:25.155Z,59.02
2022-11-24T05:05:11.224Z,59.68
2022-11-24T05:07:59.943Z,59.22
2022-11-24T05:10:46.046Z,59.27
2022-11-24T05:13:31.846Z,58.90
2022-11-24T05:16:17.742Z,58.94
2022-11-24T05:19:03.830Z,58.80
2022-11-24T05:21:49.930Z,58.87
2022-11-24T05:24:36.004Z,58.77
2022-11-24T05:27:22.402Z,58.82
2022-11-24T05:30:08.859Z,58.81
2022-11-24T05:32:55.199Z,58.59
2022-11-24T05:35:41.332Z,58.92
2022-11-24T05:38:27.203Z,58.44
2022-11-24T05:41:13.087Z,58.83
2022-11-24T05:43:59.193Z,58.80
2022-11-24T05:46:45.172Z,58.38
2022-11-24T05:49:30.932Z,58.50
2022-11-24T05:52:16.942Z,58.30
2022-11-24T05:55:03.763Z,58.11
2022-11-24T05:57:49.667Z,57.83
2022-11-24T06:00:36.750Z,57.68
2022-11-24T06:03:23.702Z,57.83
2022-11-24T06:06:10.896Z,57.59
2022-11-24T06:08:56.729Z,57.82
2022-11-24T06:11:43.338Z,57.75
2022-11-24T06:14:29.529Z,57.63
2022-11-24T06:17:15.342Z,57.62
2022-11-24T06:20:01.384Z,57.63
2022-11-24T06:22:48.318Z,57.78
2022-11-24T06:25:34.215Z,57.92
2022-11-24T06:35:26.477Z,59.41
2022-11-24T06:38:12.558Z,59.11
2022-11-24T06:41:00.003Z,59.05
2022-11-24T06:43:46.329Z,58.86
2022-11-24T06:46:32.904Z,58.51
2022-11-24T06:49:19.234Z,58.34
2022-11-24T06:52:05.146Z,58.54
2022-11-24T06:54:50.976Z,57.61
2022-11-24T06:57:36.862Z,57.89
2022-11-24T07:00:22.919Z,58.01
2022-11-24T07:03:15.380Z,57.54
2022-11-24T07:06:01.386Z,58.31
2022-11-24T07:08:47.290Z,57.33
2022-11-24T07:11:33.462Z,57.05
2022-11-24T07:14:19.491Z,57.15
2022-11-24T07:17:05.464Z,56.91
2022-11-24T07:19:51.320Z,56.82
2022-11-24T07:22:37.143Z,56.98
2022-11-24T07:25:26.580Z,56.29
2022-11-24T07:28:12.825Z,56.14
2022-11-24T07:30:59.038Z,56.42
2022-11-24T07:33:52.605Z,55.95
2022-11-24T07:36:38.466Z,55.59
2022-11-24T07:39:24.354Z,55.67
2022-11-24T07:42:11.454Z,55.84
2022-11-24T07:44:57.393Z,56.04
2022-11-24T07:47:43.291Z,55.80
2022-11-24T07:50:29.245Z,55.81
2022-11-24T07:53:15.371Z,55.94
2022-11-24T07:56:02.909Z,55.92
2022-11-24T07:58:52.851Z,56.06
2022-11-24T08:01:39.370Z,55.97
2022-11-24T08:04:25.511Z,55.35
2022-11-24T08:07:11.349Z,55.43
2022-11-24T08:09:57.092Z,55.73
2022-11-24T08:12:44.057Z,55.00
2022-11-24T08:15:30.048Z,55.38
2022-11-24T08:18:15.938Z,55.21
2022-11-24T08:21:02.362Z,55.77
2022-11-24T08:23:48.081Z,55.22
2022-11-24T08:26:34.120Z,55.31
2022-11-24T08:29:20.088Z,55.01
2022-11-24T08:32:06.070Z,55.42
2022-11-24T08:34:56.343Z,54.80
2022-11-24T08:37:45.814Z,55.53
2022-11-24T08:40:32.326Z,55.63
2022-11-24T08:43:18.599Z,55.55
2022-11-24T08:46:10.534Z,54.79
2022-11-24T08:48:56.610Z,54.91
2022-11-24T08:51:43.460Z,54.62
2022-11-24T08:54:29.576Z,54.68
2022-11-24T08:57:21.460Z,54.98
2022-11-24T09:00:09.709Z,54.78
2022-11-24T09:02:59.059Z,54.17
2022-11-24T09:05:53.057Z,54.09
2022-11-24T09:08:40.035Z,53.56
2022-11-24T09:11:27.135Z,54.09
2022-11-24T09:14:13.293Z,54.26
2022-11-24T09:16:59.642Z,53.68
2022-11-24T09:19:45.661Z,54.04
2022-11-24T09:22:31.930Z,53.31
2022-11-24T09:25:17.862Z,53.50
2022-11-24T09:28:04.351Z,53.40
2022-11-24T09:30:51.068Z,53.17
2022-11-24T09:33:37.557Z,53.90
2022-11-24T09:36:23.996Z,53.57
2022-11-24T09:39:10.910Z,53.49
2022-11-24T09:42:12.960Z,53.18
2022-11-24T09:45:56.974Z,52.88
2022-11-24T09:48:40.027Z,52.90
2022-11-24T09:51:29.405Z,52.95
2022-11-24T09:54:19.824Z,52.63
2022-11-24T09:57:07.178Z,52.93
2022-11-24T09:59:55.820Z,52.63
2022-11-24T10:02:41.654Z,52.29
2022-11-24T10:05:29.460Z,52.43
2022-11-24T10:08:21.403Z,52.33
2022-11-24T10:11:14.043Z,51.84
2022-11-24T10:14:21.533Z,52.99
2022-11-24T10:17:07.630Z,52.30
2022-11-24T10:20:09.632Z,52.04
2022-11-24T10:23:18.717Z,52.27
2022-11-24T10:26:09.073Z,52.10
2022-11-24T10:28:56.477Z,52.17
2022-11-24T10:31:43.815Z,52.53
2022-11-24T10:34:34.601Z,51.47
2022-11-24T10:37:28.835Z,52.00
2022-11-24T10:41:05.451Z,50.28
2022-11-24T10:43:52.194Z,51.39
2022-11-24T10:46:39.606Z,50.77
2022-11-24T10:49:29.300Z,50.35
2022-11-24T10:52:16.558Z,50.88
2022-11-24T10:55:04.693Z,50.44
2022-11-24T10:57:50.689Z,50.98
2022-11-24T11:00:36.886Z,50.84
2022-11-24T11:03:33.273Z,50.71
2022-11-24T11:06:24.840Z,50.14
2022-11-24T11:09:16.846Z,50.67
2022-11-24T11:12:42.212Z,50.54
2022-11-24T11:15:25.996Z,50.38
2022-11-24T11:18:14.961Z,50.62
2022-11-24T11:21:02.295Z,50.54
2022-11-24T11:23:51.612Z,50.06
2022-11-24T11:26:38.461Z,50.66
2022-11-24T11:35:39.256Z,51.14
2022-11-24T11:38:26.591Z,50.88
2022-11-24T11:41:34.818Z,50.94
2022-11-24T11:44:44.336Z,50.78
2022-11-24T11:47:31.528Z,50.64
2022-11-24T11:50:23.841Z,50.11
2022-11-24T11:53:11.704Z,50.11
2022-11-24T11:56:04.113Z,50.52
2022-11-24T11:59:22.268Z,50.19
2022-11-24T12:02:17.379Z,50.39
2022-11-24T12:05:22.539Z,50.31
2022-11-24T12:08:23.840Z,50.33
2022-11-24T12:11:26.446Z,50.21
2022-11-24T12:14:24.673Z,50.18
2022-11-24T12:17:32.510Z,50.20
2022-11-24T12:21:00.078Z,50.33
2022-11-24T12:24:06.110Z,50.39
2022-11-24T12:27:20.937Z,50.14
2022-11-24T12:30:13.517Z,49.96
2022-11-24T12:33:00.335Z,49.91
2022-11-24T12:35:49.294Z,49.63
2022-11-24T12:38:50.521Z,49.80
2022-11-24T12:41:58.417Z,49.91
2022-11-24T12:45:09.259Z,49.62
2022-11-24T12:48:06.389Z,50.00
2022-11-24T12:50:53.932Z,49.63
2022-11-24T12:53:40.377Z,49.74
2022-11-24T12:56:31.919Z,49.95
2022-11-24T12:59:24.082Z,49.78
2022-11-24T13:02:39.967Z,49.50
2022-11-24T13:05:33.294Z,49.55
2022-11-24T13:08:19.873Z,49.64
2022-11-24T13:11:21.292Z,49.65
2022-11-24T13:14:15.323Z,49.70
2022-11-24T13:17:28.817Z,49.39
2022-11-24T13:20:18.938Z,49.83
2022-11-24T13:23:07.628Z,49.13
2022-11-24T13:26:27.272Z,49.76
2022-11-24T13:29:28.878Z,49.33
2022-11-24T13:32:15.148Z,49.20
2022-11-24T13:35:13.500Z,49.54
2022-11-24T13:37:59.548Z,49.27
2022-11-24T13:41:06.218Z,49.27
2022-11-24T13:44:15.010Z,48.85
2022-11-24T13:47:05.580Z,48.85
2022-11-24T13:49:52.621Z,48.96
2022-11-24T13:53:06.339Z,49.17
2022-11-24T13:55:59.962Z,48.79
2022-11-24T13:58:51.337Z,49.52
2022-11-24T14:01:40.852Z,49.19
2022-11-24T14:07:34.719Z,49.29
2022-11-24T14:10:36.250Z,48.87
2022-11-24T14:13:25.369Z,48.91
2022-11-24T14:16:17.674Z,49.06
2022-11-24T14:19:10.064Z,48.65
2022-11-24T14:21:56.264Z,49.08
2022-11-24T14:24:45.364Z,49.01
2022-11-24T14:27:34.180Z,49.31
2022-11-24T14:30:22.693Z,48.65
2022-11-24T14:33:16.036Z,49.14
2022-11-24T14:36:02.220Z,49.13
2022-11-24T14:38:48.291Z,49.17
2022-11-24T14:41:34.353Z,49.23
2022-11-24T14:44:27.154Z,49.16
2022-11-24T14:47:15.141Z,49.37
2022-11-24T14:50:12.885Z,49.61
2022-11-24T14:52:59.279Z,49.32
2022-11-24T14:55:45.649Z,49.19
2022-11-24T14:58:36.510Z,49.41
2022-11-24T15:01:28.241Z,49.40
2022-11-24T15:07:32.450Z,49.64
2022-11-24T15:10:33.964Z,49.18
2022-11-24T15:13:23.204Z,49.46
2022-11-24T15:16:16.364Z,49.34
2022-11-24T15:19:03.085Z,49.02
2022-11-24T15:21:49.125Z,49.17
2022-11-24T15:24:49.321Z,48.96
2022-11-24T15:27:35.604Z,48.98
2022-11-24T15:30:21.443Z,49.52
2022-11-24T15:33:17.165Z,49.50
2022-11-24T15:36:03.444Z,48.75
2022-11-24T15:38:49.624Z,49.12
2022-11-24T15:41:35.718Z,49.12
2022-11-24T15:44:21.925Z,48.99
2022-11-24T15:47:08.702Z,49.28
2022-11-24T15:49:54.910Z,49.27
2022-11-24T15:52:41.770Z,49.53
2022-11-24T15:55:28.088Z,49.45
2022-11-24T15:58:14.602Z,49.15
2022-11-24T16:01:00.861Z,49.40
2022-11-24T16:03:48.187Z,49.26
2022-11-24T16:06:35.301Z,49.19
2022-11-24T16:09:21.348Z,49.21
2022-11-24T16:12:10.577Z,49.25
2022-11-24T16:14:56.905Z,49.07
2022-11-24T16:17:42.679Z,49.24
2022-11-24T16:20:28.580Z,49.07
2022-11-24T16:23:14.526Z,49.06
2022-11-24T16:26:00.400Z,49.37
2022-11-24T16:28:46.497Z,49.95
2022-11-24T16:31:32.964Z,49.06
2022-11-24T16:34:19.107Z,49.00
2022-11-24T16:37:05.024Z,49.10
2022-11-24T16:39:51.252Z,49.02
2022-11-24T16:42:37.253Z,49.00
2022-11-24T16:45:23.217Z,49.48
2022-11-24T16:48:09.103Z,49.64
2022-11-24T16:50:55.031Z,49.39
2022-11-24T16:53:41.181Z,49.33
2022-11-24T16:56:28.633Z,49.38
2022-11-24T16:59:14.819Z,49.48
2022-11-24T17:02:01.302Z,48.83
2022-11-24T17:04:47.214Z,48.74
2022-11-24T17:07:33.501Z,49.15
2022-11-24T17:10:19.720Z,49.15
2022-11-24T17:13:05.944Z,48.74
2022-11-24T17:15:54.326Z,49.37
2022-11-24T17:18:40.864Z,49.25
2022-11-24T17:21:27.793Z,49.08
2022-11-24T17:24:17.662Z,48.91
2022-11-24T17:27:03.654Z,48.59
2022-11-24T17:29:49.625Z,49.35
2022-11-24T17:32:35.754Z,49.18
2022-11-24T17:35:21.694Z,49.09
2022-11-24T17:38:07.468Z,48.84
2022-11-24T17:40:53.504Z,48.79
2022-11-24T17:43:39.647Z,48.96
2022-11-24T17:46:27.105Z,48.94
2022-11-24T17:49:13.317Z,49.26
2022-11-24T17:51:59.296Z,48.98
2022-11-24T17:54:46.759Z,48.85
2022-11-24T17:57:32.924Z,49.11
2022-11-24T18:00:19.081Z,49.07
2022-11-24T18:03:05.769Z,49.07
2022-11-24T18:05:51.748Z,49.09
2022-11-24T18:08:38.798Z,48.84
2022-11-24T18:11:31.368Z,48.78
2022-11-24T18:14:18.215Z,49.28
2022-11-24T18:17:04.470Z,48.93
2022-11-24T18:19:50.658Z,49.16
2022-11-24T18:23:04.055Z,48.91
2022-11-24T18:25:42.871Z,49.06
2022-11-24T18:28:29.036Z,48.97
2022-11-24T18:31:16.501Z,49.10
2022-11-24T18:34:04.283Z,49.11
2022-11-24T18:36:52.608Z,48.90
2022-11-24T18:39:42.136Z,48.92
2022-11-24T18:42:29.114Z,48.92
2022-11-24T18:45:15.131Z,48.83
2022-11-24T18:48:01.044Z,48.92
2022-11-24T18:50:54.673Z,48.49
2022-11-24T18:53:42.699Z,48.97
2022-11-24T18:56:29.479Z,49.13
2022-11-24T18:59:15.515Z,48.82
2022-11-24T19:02:01.384Z,49.36
2022-11-24T19:04:47.485Z,49.28
2022-11-24T19:07:33.785Z,49.02
2022-11-24T19:10:19.608Z,49.27
2022-11-24T19:13:05.689Z,49.27
2022-11-24T19:15:52.047Z,49.01
2022-11-24T19:18:38.133Z,49.22
2022-11-24T19:21:24.029Z,49.33
2022-11-24T19:24:10.451Z,49.06
2022-11-24T19:26:56.735Z,49.43
2022-11-24T19:29:43.293Z,49.46
2022-11-24T19:32:31.437Z,49.38
2022-11-24T19:35:17.586Z,49.35
2022-11-24T19:38:03.832Z,49.17
2022-11-24T19:40:49.582Z,49.11
2022-11-24T19:43:35.885Z,49.10
2022-11-24T19:46:23.040Z,49.54
2022-11-24T19:49:09.148Z,49.40
2022-11-24T19:51:55.202Z,49.46
2022-11-24T19:54:41.618Z,49.07
2022-11-24T19:57:28.135Z,49.47
2022-11-24T20:00:15.277Z,49.26
2022-11-24T20:03:01.645Z,49.28
2022-11-24T20:05:57.240Z,49.76
2022-11-24T20:08:43.618Z,49.92
2022-11-24T20:11:30.229Z,49.52
2022-11-24T20:14:18.934Z,49.97
2022-11-24T20:17:06.769Z,49.85
2022-11-24T20:19:52.685Z,49.65
2022-11-24T20:22:38.617Z,49.40
2022-11-24T20:25:25.164Z,49.70
2022-11-24T20:28:11.712Z,49.49
2022-11-24T20:31:01.927Z,49.59
2022-11-24T20:33:49.386Z,49.53
2022-11-24T20:36:37.668Z,49.78
2022-11-24T20:39:26.457Z,49.84
2022-11-24T20:42:12.533Z,49.91
2022-11-24T20:45:00.879Z,49.63
2022-11-24T20:47:46.799Z,49.62
2022-11-24T20:50:36.983Z,49.96
2022-11-24T20:53:23.009Z,49.83
2022-11-24T20:56:29.013Z,49.91
2022-11-24T20:59:24.382Z,50.17
2022-11-24T21:02:11.364Z,50.11
2022-11-24T21:04:57.493Z,49.82
2022-11-24T21:07:43.564Z,50.21
2022-11-24T21:10:29.641Z,49.97
2022-11-24T21:13:15.765Z,49.91
2022-11-24T21:16:11.610Z,49.92
2022-11-24T21:18:59.981Z,49.84
2022-11-24T21:21:47.700Z,50.03
2022-11-24T21:24:34.883Z,49.92
2022-11-24T21:27:21.366Z,49.78
2022-11-24T21:30:09.680Z,49.87
2022-11-24T21:32:56.222Z,49.66
2022-11-24T21:35:42.533Z,49.79
2022-11-24T21:38:28.767Z,49.61
2022-11-24T21:41:14.722Z,49.61
2022-11-24T21:44:00.890Z,49.98
2022-11-24T21:46:52.599Z,49.73
2022-11-24T21:49:40.090Z,49.67
2022-11-24T21:52:26.221Z,49.92
2022-11-24T21:55:12.106Z,49.84
2022-11-24T21:57:58.288Z,49.89
2022-11-24T22:00:44.263Z,50.05
2022-11-24T22:03:30.096Z,49.82
2022-11-24T22:06:17.868Z,50.38
2022-11-24T22:09:03.729Z,50.26
2022-11-24T22:11:49.910Z,49.99
2022-11-24T22:14:40.164Z,51.27
2022-11-24T22:17:30.557Z,50.71
2022-11-24T22:20:16.858Z,50.18
2022-11-24T22:23:02.762Z,50.33
2022-11-24T22:25:48.815Z,50.64
2022-11-24T22:28:36.001Z,50.45
2022-11-24T22:31:27.172Z,50.15
2022-11-24T22:34:13.233Z,50.06
2022-11-24T22:36:59.085Z,50.40
2022-11-24T22:39:44.979Z,50.14
2022-11-24T22:42:30.882Z,50.53
2022-11-24T22:45:17.000Z,50.29
2022-11-24T22:48:02.787Z,50.52
2022-11-24T22:50:48.757Z,50.31
2022-11-24T22:53:34.585Z,50.34
2022-11-24T22:56:22.667Z,50.47
2022-11-24T22:59:08.931Z,50.54
2022-11-24T23:01:54.793Z,51.15
2022-11-24T23:04:40.579Z,50.70
2022-11-24T23:07:26.664Z,50.70
2022-11-24T23:10:12.683Z,50.94
2022-11-24T23:12:58.871Z,50.98
2022-11-24T23:15:44.787Z,50.80
2022-11-24T23:18:31.460Z,50.83
2022-11-24T23:21:23.144Z,51.04
2022-11-24T23:24:10.498Z,51.29
2022-11-24T23:26:56.464Z,51.10
2022-11-24T23:29:42.189Z,51.12
2022-11-24T23:32:28.281Z,50.93
2022-11-24T23:35:14.298Z,51.10
2022-11-24T23:38:07.502Z,51.26
2022-11-24T23:40:58.537Z,51.35
2022-11-24T23:43:44.876Z,50.93
2022-11-24T23:46:31.157Z,51.00
2022-11-24T23:49:16.957Z,50.93
2022-11-24T23:52:02.898Z,51.45
2022-11-24T23:54:48.751Z,51.41
2022-11-24T23:57:34.608Z,51.36
